| time (UTC) | temp C | wind direction | speed KPH | gust KPH | rain 1hr cm | rain 24hr cm | rain mn cm | humidity % | barometer mb |
| 20260507070028 | 9 | 346 | 0.0 | 0.0 | 0.05 | 0.51 | 0.10 | 96 | 1011.9 |
| 20260507064523 | 10 | 346 | 0.0 | 0.0 | 0.05 | 0.51 | 0.10 | 95 | 1012.1 |
| 20260507063020 | 10 | 346 | 0.0 | 6.4 | 0.00 | 0.46 | 0.05 | 94 | 1012.3 |
| 20260507061516 | 10 | 346 | 3.2 | 9.7 | 0.03 | 0.46 | 0.05 | 93 | 1012.2 |
| 20260507060014 | 10 | 355 | 0.0 | 9.7 | 0.03 | 0.46 | 0.05 | 90 | 1012.2 |
| 20260507054517 | 11 | 355 | 4.8 | 14.5 | 0.03 | 0.46 | 0.05 | 93 | 1012.2 |
| 20260507053007 | 11 | 355 | 0.0 | 1.6 | 0.03 | 0.46 | 0.05 | 95 | 1011.9 |
| 20260507051506 | 11 | 355 | 3.2 | 9.7 | 0.03 | 0.43 | 0.03 | 94 | 1012.1 |
| 20260507050004 | 11 | 360 | 0.0 | 12.9 | 0.03 | 0.43 | 0.03 | 94 | 1011.9 |
| 20260507044501 | 11 | 9 | 0.0 | 12.9 | 0.03 | 0.43 | 0.03 | 95 | 1012.2 |
| 20260507043100 | 12 | 12 | 0.0 | 0.0 | 0.03 | 0.43 | 0.03 | 95 | 1011.9 |
| 20260507041556 | 12 | 12 | 1.6 | 9.7 | 0.03 | 0.41 | 0.00 | 93 | 1011.4 |
| 20260507040057 | 12 | 349 | 0.0 | 9.7 | 0.05 | 0.41 | 0.00 | 93 | 1011.3 |
| 20260507034556 | 12 | 348 | 3.2 | 11.3 | 0.05 | 0.41 | 0.41 | 92 | 1011.3 |
| 20260507033053 | 12 | 15 | 4.8 | 11.3 | 0.03 | 0.38 | 0.38 | 92 | 1011.4 |
| 20260507031545 | 13 | 12 | 4.8 | 20.9 | 0.03 | 0.38 | 0.38 | 92 | 1011.0 |
| 20260507030043 | 13 | 22 | 0.0 | 1.6 | 0.00 | 0.36 | 0.36 | 94 | 1011.1 |
| 20260507024538 | 14 | 23 | 0.0 | 11.3 | 0.00 | 0.36 | 0.36 | 91 | 1011.1 |
| 20260507023042 | 14 | 9 | 1.6 | 9.7 | 0.03 | 0.36 | 0.36 | 91 | 1010.7 |
| 20260507021534 | 14 | 9 | 4.8 | 11.3 | 0.03 | 0.36 | 0.36 | 91 | 1010.8 |
| 20260507020036 | 14 | 9 | 0.0 | 4.8 | 0.05 | 0.36 | 0.36 | 92 | 1010.6 |
| 20260507014530 | 15 | 25 | 3.2 | 16.1 | 0.05 | 0.36 | 0.36 | 92 | 1010.8 |
| 20260507013042 | 16 | 316 | 4.8 | 14.5 | 0.03 | 0.33 | 0.33 | 91 | 1011.0 |
| 20260507011525 | 16 | 24 | 0.0 | 8.0 | 0.03 | 0.33 | 0.33 | 92 | 1010.9 |
| 20260507010032 | 16 | 40 | 0.0 | 9.7 | 0.00 | 0.30 | 0.30 | 90 | 1010.8 |
| 20260507004523 | 17 | 29 | 0.0 | 4.8 | 0.00 | 0.30 | 0.30 | 92 | 1010.7 |
| 20260507003028 | 17 | 207 | 0.0 | 0.0 | 0.00 | 0.30 | 0.30 | 91 | 1010.1 |
| 20260507001522 | 17 | 207 | 0.0 | 0.0 | 0.00 | 0.30 | 0.30 | 91 | 1009.9 |
| 20260507000022 | 17 | 207 | 0.0 | 0.0 | 0.00 | 0.30 | 0.30 | 91 | 1009.5 |
| 20260506234521 | 17 | 207 | 0.0 | 0.0 | 0.00 | 0.30 | 0.30 | 91 | 1009.2 |
| 20260506233022 | 17 | 207 | 0.0 | 0.0 | 0.00 | 0.30 | 0.30 | 91 | 1009.2 |
| 20260506231520 | 18 | 207 | 0.0 | 0.0 | 0.00 | 0.30 | 0.30 | 90 | 1009.1 |
| 20260506230020 | 18 | 207 | 0.0 | 0.0 | 0.00 | 0.30 | 0.30 | 89 | 1009.2 |
| 20260506224519 | 18 | 207 | 0.0 | 0.0 | 0.00 | 0.30 | 0.30 | 90 | 1008.9 |
| 20260506223019 | 18 | 207 | 0.0 | 1.6 | 0.00 | 0.30 | 0.30 | 89 | 1009.1 |
| 20260506221516 | 18 | 201 | 0.0 | 0.0 | 0.00 | 0.30 | 0.30 | 90 | 1009.1 |
| 20260506220017 | 17 | 201 | 0.0 | 0.0 | 0.00 | 0.30 | 0.30 | 90 | 1009.2 |
| 20260506214531 | 18 | 201 | 0.0 | 0.0 | 0.00 | 0.30 | 0.30 | 89 | 1009.0 |
| 20260506213019 | 18 | 201 | 0.0 | 3.2 | 0.00 | 0.30 | 0.30 | 89 | 1008.5 |
| 20260506211515 | 18 | 227 | 0.0 | 6.4 | 0.00 | 0.30 | 0.30 | 86 | 1008.4 |
| 20260506210019 | 18 | 265 | 0.0 | 1.6 | 0.00 | 0.30 | 0.30 | 87 | 1008.5 |
| 20260506204514 | 19 | 188 | 0.0 | 11.3 | 0.00 | 0.30 | 0.30 | 87 | 1008.3 |
| 20260506203013 | 18 | 44 | 0.0 | 6.4 | 0.00 | 0.30 | 0.30 | 87 | 1008.3 |
| 20260506201513 | 19 | 238 | 0.0 | 1.6 | 0.00 | 0.30 | 0.30 | 87 | 1008.3 |
| 20260506200012 | 19 | 217 | 0.0 | 9.7 | 0.00 | 0.30 | 0.30 | 85 | 1008.2 |
| 20260506194508 | 18 | 250 | 0.0 | 8.0 | 0.00 | 0.30 | 0.30 | 86 | 1008.3 |
| 20260506193006 | 17 | 217 | 1.6 | 9.7 | 0.00 | 0.30 | 0.30 | 89 | 1008.4 |
| 20260506191502 | 17 | 173 | 0.0 | 3.2 | 0.00 | 0.30 | 0.30 | 90 | 1008.6 |
| 20260506184601 | 17 | 248 | 0.0 | 8.0 | 0.00 | 0.30 | 0.30 | 93 | 1008.7 |
| 20260506183103 | 17 | 201 | 1.6 | 9.7 | 0.00 | 0.30 | 0.30 | 90 | 1009.0 |
| 20260506181618 | 16 | 227 | 0.0 | 8.0 | 0.00 | 0.30 | 0.30 | 93 | 1009.0 |
| 20260506180048 | 16 | 240 | 0.0 | 9.7 | 0.00 | 0.30 | 0.30 | 94 | 1009.3 |
| 20260506174547 | 16 | 187 | 0.0 | 8.0 | 0.00 | 0.30 | 0.30 | 94 | 1009.3 |
| 20260506173056 | 16 | 140 | 0.0 | 6.4 | 0.00 | 0.30 | 0.30 | 94 | 1009.3 |
| 20260506171544 | 15 | 202 | 3.2 | 11.3 | 0.00 | 0.30 | 0.30 | 94 | 1009.3 |
| 20260506170042 | 15 | 155 | 0.0 | 11.3 | 0.00 | 0.30 | 0.30 | 94 | 1009.3 |
| 20260506164543 | 15 | 228 | 0.0 | 6.4 | 0.00 | 0.30 | 0.30 | 95 | 1009.4 |
| 20260506163040 | 15 | 157 | 0.0 | 16.1 | 0.00 | 0.30 | 0.30 | 95 | 1009.3 |
| 20260506161536 | 15 | 229 | 0.0 | 11.3 | 0.03 | 0.30 | 0.30 | 95 | 1009.7 |
| 20260506160035 | 15 | 222 | 0.0 | 11.3 | 0.08 | 0.30 | 0.30 | 95 | 1009.5 |
| 20260506154534 | 15 | 128 | 0.0 | 9.7 | 0.13 | 0.30 | 0.30 | 95 | 1009.3 |
| 20260506153036 | 15 | 207 | 0.0 | 8.0 | 0.13 | 0.30 | 0.30 | 95 | 1009.3 |
| 20260506151530 | 15 | 215 | 1.6 | 12.9 | 0.13 | 0.28 | 0.28 | 95 | 1010.0 |
| 20260506150032 | 15 | 167 | 0.0 | 3.2 | 0.10 | 0.23 | 0.23 | 95 | 1010.1 |
| 20260506144528 | 15 | 235 | 0.0 | 17.7 | 0.05 | 0.18 | 0.18 | 94 | 1010.3 |
| 20260506143030 | 15 | 258 | 1.6 | 12.9 | 0.10 | 0.18 | 0.18 | 94 | 1010.2 |
| 20260506141524 | 15 | 246 | 0.0 | 8.0 | 0.10 | 0.15 | 0.15 | 94 | 1009.6 |
| 20260506140023 | 15 | 211 | 0.0 | 9.7 | 0.10 | 0.13 | 0.13 | 94 | 1010.3 |
| 20260506134521 | 15 | 192 | 0.0 | 6.4 | 0.13 | 0.13 | 0.13 | 94 | 1010.3 |
| 20260506133017 | 15 | 214 | 0.0 | 6.4 | 0.08 | 0.08 | 0.08 | 92 | 1010.3 |
| 20260506131523 | 15 | 155 | 0.0 | 9.7 | 0.05 | 0.05 | 0.05 | 91 | 1010.3 |
| 20260506130014 | 16 | 161 | 0.0 | 3.2 | 0.03 | 0.03 | 0.03 | 89 | 1010.2 |
| 20260506124509 | 16 | 176 | 0.0 | 12.9 | 0.00 | 0.00 | 0.00 | 85 | 1010.3 |
| 20260506123006 | 16 | 57 | 0.0 | 9.7 | 0.00 | 0.00 | 0.00 | 82 | 1010.3 |
| 20260506121504 | 17 | 192 | 1.6 | 12.9 | 0.00 | 0.00 | 0.00 | 81 | 1010.6 |
| 20260506120010 | 17 | 213 | 1.6 | 9.7 | 0.00 | 0.00 | 0.00 | 79 | 1010.6 |
| 20260506114502 | 17 | 200 | 1.6 | 11.3 | 0.00 | 0.00 | 0.00 | 79 | 1010.3 |
| 20260506113100 | 17 | 211 | 4.8 | 11.3 | 0.00 | 0.00 | 0.00 | 79 | 1010.1 |
| 20260506111557 | 17 | 238 | 0.0 | 8.0 | 0.00 | 0.00 | 0.00 | 78 | 1009.9 |
| 20260506110056 | 17 | 227 | 1.6 | 9.7 | 0.00 | 0.00 | 0.00 | 76 | 1009.9 |
| 20260506104600 | 17 | 165 | 1.6 | 11.3 | 0.00 | 0.00 | 0.00 | 76 | 1009.7 |
| 20260506103056 | 17 | 201 | 3.2 | 11.3 | 0.00 | 0.00 | 0.00 | 76 | 1009.5 |
| 20260506101552 | 17 | 193 | 0.0 | 6.4 | 0.00 | 0.00 | 0.00 | 75 | 1009.6 |
| 20260506100051 | 17 | 217 | 0.0 | 12.9 | 0.00 | 0.00 | 0.00 | 75 | 1009.6 |
| 20260506094549 | 17 | 173 | 1.6 | 12.9 | 0.00 | 0.00 | 0.00 | 73 | 1009.5 |
| 20260506093048 | 17 | 193 | 1.6 | 9.7 | 0.00 | 0.00 | 0.00 | 73 | 1009.5 |
| 20260506091553 | 17 | 277 | 1.6 | 11.3 | 0.00 | 0.00 | 0.00 | 72 | 1009.5 |
| 20260506090051 | 17 | 235 | 0.0 | 6.4 | 0.00 | 0.00 | 0.00 | 72 | 1009.7 |
| 20260506084549 | 17 | 206 | 0.0 | 12.9 | 0.00 | 0.00 | 0.00 | 71 | 1009.9 |
| 20260506083043 | 17 | 152 | 0.0 | 6.4 | 0.00 | 0.00 | 0.00 | 70 | 1009.8 |
| 20260506081540 | 18 | 198 | 0.0 | 9.7 | 0.00 | 0.00 | 0.00 | 69 | 1009.7 |
| 20260506073037 | 18 | 199 | 0.0 | 1.6 | 0.00 | 0.00 | 0.00 | 67 | 1009.8 |
| 20260506071532 | 18 | 199 | 0.0 | 9.7 | 0.00 | 0.00 | 0.00 | 65 | 1010.0 |